sensor_id;sensor_type;location;lat;lon;timestamp;P1;durP1;ratioP1;P2;durP2;ratioP2
47535;SDS011;33278;50.826;9.030;2022-08-19T00:01:07;13.85;;;12.68;;
47535;SDS011;33278;50.826;9.030;2022-08-19T00:03:38;12.82;;;11.75;;
47535;SDS011;33278;50.826;9.030;2022-08-19T00:06:08;13.77;;;12.68;;
47535;SDS011;33278;50.826;9.030;2022-08-19T00:08:39;14.52;;;13.23;;
47535;SDS011;33278;50.826;9.030;2022-08-19T00:11:10;12.52;;;11.52;;
47535;SDS011;33278;50.826;9.030;2022-08-19T00:13:40;13.95;;;12.93;;
47535;SDS011;33278;50.826;9.030;2022-08-19T00:16:11;12.70;;;11.70;;
47535;SDS011;33278;50.826;9.030;2022-08-19T00:18:41;13.32;;;12.23;;
47535;SDS011;33278;50.826;9.030;2022-08-19T00:21:13;13.15;;;11.95;;
47535;SDS011;33278;50.826;9.030;2022-08-19T00:23:44;13.60;;;12.50;;
47535;SDS011;33278;50.826;9.030;2022-08-19T00:26:14;12.90;;;11.88;;
47535;SDS011;33278;50.826;9.030;2022-08-19T00:28:44;12.70;;;11.63;;
47535;SDS011;33278;50.826;9.030;2022-08-19T00:31:15;12.45;;;11.45;;
47535;SDS011;33278;50.826;9.030;2022-08-19T00:33:46;13.57;;;12.48;;
47535;SDS011;33278;50.826;9.030;2022-08-19T00:36:19;13.27;;;12.18;;
47535;SDS011;33278;50.826;9.030;2022-08-19T00:38:49;12.70;;;11.65;;
47535;SDS011;33278;50.826;9.030;2022-08-19T00:41:23;13.60;;;12.50;;
47535;SDS011;33278;50.826;9.030;2022-08-19T00:46:37;13.82;;;12.77;;
47535;SDS011;33278;50.826;9.030;2022-08-19T00:49:19;13.68;;;12.68;;
47535;SDS011;33278;50.826;9.030;2022-08-19T00:51:53;12.43;;;11.40;;
47535;SDS011;33278;50.826;9.030;2022-08-19T00:54:29;12.57;;;11.57;;
47535;SDS011;33278;50.826;9.030;2022-08-19T00:57:01;13.10;;;12.10;;
47535;SDS011;33278;50.826;9.030;2022-08-19T00:59:36;14.10;;;13.02;;
47535;SDS011;33278;50.826;9.030;2022-08-19T01:02:09;13.68;;;12.63;;
47535;SDS011;33278;50.826;9.030;2022-08-19T01:04:39;12.82;;;11.82;;
47535;SDS011;33278;50.826;9.030;2022-08-19T01:07:10;13.32;;;12.13;;
47535;SDS011;33278;50.826;9.030;2022-08-19T01:09:40;12.85;;;11.95;;
47535;SDS011;33278;50.826;9.030;2022-08-19T01:12:10;12.68;;;11.73;;
47535;SDS011;33278;50.826;9.030;2022-08-19T01:14:41;13.20;;;12.05;;
47535;SDS011;33278;50.826;9.030;2022-08-19T01:17:11;12.85;;;11.75;;
47535;SDS011;33278;50.826;9.030;2022-08-19T01:19:43;12.82;;;11.80;;
47535;SDS011;33278;50.826;9.030;2022-08-19T01:22:25;12.88;;;11.88;;
47535;SDS011;33278;50.826;9.030;2022-08-19T01:25:00;13.60;;;12.50;;
47535;SDS011;33278;50.826;9.030;2022-08-19T01:27:38;12.93;;;11.82;;
47535;SDS011;33278;50.826;9.030;2022-08-19T01:30:17;11.93;;;10.90;;
47535;SDS011;33278;50.826;9.030;2022-08-19T01:32:52;12.70;;;11.65;;
47535;SDS011;33278;50.826;9.030;2022-08-19T01:35:24;12.90;;;11.80;;
47535;SDS011;33278;50.826;9.030;2022-08-19T01:38:03;12.10;;;11.10;;
47535;SDS011;33278;50.826;9.030;2022-08-19T01:40:39;13.40;;;12.38;;
47535;SDS011;33278;50.826;9.030;2022-08-19T01:43:12;13.38;;;12.27;;
47535;SDS011;33278;50.826;9.030;2022-08-19T01:45:42;13.32;;;12.32;;
47535;SDS011;33278;50.826;9.030;2022-08-19T01:48:12;12.27;;;11.18;;
47535;SDS011;33278;50.826;9.030;2022-08-19T01:50:44;12.18;;;11.25;;
47535;SDS011;33278;50.826;9.030;2022-08-19T01:53:14;11.50;;;10.63;;
47535;SDS011;33278;50.826;9.030;2022-08-19T01:55:44;12.55;;;11.55;;
47535;SDS011;33278;50.826;9.030;2022-08-19T01:58:16;12.30;;;11.40;;
47535;SDS011;33278;50.826;9.030;2022-08-19T02:00:50;11.40;;;10.40;;
47535;SDS011;33278;50.826;9.030;2022-08-19T02:03:21;11.95;;;11.05;;
47535;SDS011;33278;50.826;9.030;2022-08-19T02:05:59;11.68;;;10.77;;
47535;SDS011;33278;50.826;9.030;2022-08-19T02:08:33;11.15;;;10.35;;
47535;SDS011;33278;50.826;9.030;2022-08-19T02:11:06;11.82;;;10.88;;
47535;SDS011;33278;50.826;9.030;2022-08-19T02:13:37;11.30;;;10.30;;
47535;SDS011;33278;50.826;9.030;2022-08-19T02:16:07;11.05;;;10.20;;
47535;SDS011;33278;50.826;9.030;2022-08-19T02:18:38;11.20;;;10.07;;
47535;SDS011;33278;50.826;9.030;2022-08-19T02:21:08;10.57;;;9.68;;
47535;SDS011;33278;50.826;9.030;2022-08-19T02:23:38;11.73;;;9.85;;
47535;SDS011;33278;50.826;9.030;2022-08-19T02:26:09;9.60;;;8.60;;
47535;SDS011;33278;50.826;9.030;2022-08-19T02:28:40;10.77;;;9.77;;
47535;SDS011;33278;50.826;9.030;2022-08-19T02:31:12;10.93;;;9.85;;
47535;SDS011;33278;50.826;9.030;2022-08-19T02:33:45;9.63;;;8.75;;
47535;SDS011;33278;50.826;9.030;2022-08-19T02:36:16;12.75;;;9.48;;
47535;SDS011;33278;50.826;9.030;2022-08-19T02:38:47;11.13;;;10.23;;
47535;SDS011;33278;50.826;9.030;2022-08-19T02:41:20;16.83;;;9.77;;
47535;SDS011;33278;50.826;9.030;2022-08-19T02:43:53;12.45;;;9.18;;
47535;SDS011;33278;50.826;9.030;2022-08-19T02:46:25;22.40;;;9.75;;
47535;SDS011;33278;50.826;9.030;2022-08-19T02:48:59;20.98;;;9.60;;
47535;SDS011;33278;50.826;9.030;2022-08-19T02:51:34;9.63;;;8.65;;
47535;SDS011;33278;50.826;9.030;2022-08-19T02:54:06;16.48;;;8.88;;
47535;SDS011;33278;50.826;9.030;2022-08-19T02:56:39;13.82;;;9.48;;
47535;SDS011;33278;50.826;9.030;2022-08-19T03:01:41;9.82;;;8.80;;
47535;SDS011;33278;50.826;9.030;2022-08-19T03:04:14;8.60;;;7.90;;
47535;SDS011;33278;50.826;9.030;2022-08-19T03:06:46;9.10;;;8.30;;
47535;SDS011;33278;50.826;9.030;2022-08-19T03:09:18;8.77;;;8.07;;
47535;SDS011;33278;50.826;9.030;2022-08-19T03:11:49;8.43;;;7.78;;
47535;SDS011;33278;50.826;9.030;2022-08-19T03:14:20;9.40;;;7.38;;
47535;SDS011;33278;50.826;9.030;2022-08-19T03:16:50;8.32;;;7.53;;
47535;SDS011;33278;50.826;9.030;2022-08-19T03:19:22;8.98;;;8.27;;
47535;SDS011;33278;50.826;9.030;2022-08-19T03:21:52;8.93;;;8.15;;
47535;SDS011;33278;50.826;9.030;2022-08-19T03:24:23;8.18;;;7.45;;
47535;SDS011;33278;50.826;9.030;2022-08-19T03:26:54;7.97;;;7.38;;
47535;SDS011;33278;50.826;9.030;2022-08-19T03:29:29;8.68;;;7.90;;
47535;SDS011;33278;50.826;9.030;2022-08-19T03:32:02;7.90;;;7.20;;
47535;SDS011;33278;50.826;9.030;2022-08-19T03:34:36;8.48;;;7.68;;
47535;SDS011;33278;50.826;9.030;2022-08-19T03:39:40;10.75;;;7.43;;
47535;SDS011;33278;50.826;9.030;2022-08-19T03:42:11;8.40;;;7.70;;
47535;SDS011;33278;50.826;9.030;2022-08-19T03:44:42;7.22;;;6.63;;
47535;SDS011;33278;50.826;9.030;2022-08-19T03:47:14;7.85;;;7.15;;
47535;SDS011;33278;50.826;9.030;2022-08-19T03:49:45;9.13;;;8.18;;
47535;SDS011;33278;50.826;9.030;2022-08-19T03:52:16;7.78;;;7.07;;
47535;SDS011;33278;50.826;9.030;2022-08-19T03:54:46;8.07;;;7.28;;
47535;SDS011;33278;50.826;9.030;2022-08-19T03:57:16;7.90;;;7.30;;
47535;SDS011;33278;50.826;9.030;2022-08-19T03:59:47;8.05;;;7.00;;
47535;SDS011;33278;50.826;9.030;2022-08-19T04:02:17;10.27;;;7.20;;
47535;SDS011;33278;50.826;9.030;2022-08-19T04:04:47;7.35;;;6.65;;
47535;SDS011;33278;50.826;9.030;2022-08-19T04:07:17;7.50;;;6.80;;
47535;SDS011;33278;50.826;9.030;2022-08-19T04:09:51;7.63;;;7.00;;
47535;SDS011;33278;50.826;9.030;2022-08-19T04:12:21;6.95;;;6.45;;
47535;SDS011;33278;50.826;9.030;2022-08-19T04:14:52;7.78;;;7.15;;
47535;SDS011;33278;50.826;9.030;2022-08-19T04:17:22;7.45;;;6.75;;
47535;SDS011;33278;50.826;9.030;2022-08-19T04:19:52;7.57;;;6.88;;
47535;SDS011;33278;50.826;9.030;2022-08-19T04:22:23;7.38;;;6.72;;
47535;SDS011;33278;50.826;9.030;2022-08-19T04:24:53;6.50;;;6.00;;
47535;SDS011;33278;50.826;9.030;2022-08-19T04:27:23;6.68;;;6.18;;
47535;SDS011;33278;50.826;9.030;2022-08-19T04:29:54;7.85;;;7.15;;
47535;SDS011;33278;50.826;9.030;2022-08-19T04:32:25;7.28;;;6.60;;
47535;SDS011;33278;50.826;9.030;2022-08-19T04:34:55;7.45;;;6.75;;
47535;SDS011;33278;50.826;9.030;2022-08-19T04:37:26;6.57;;;6.03;;
47535;SDS011;33278;50.826;9.030;2022-08-19T04:39:57;6.40;;;5.93;;
47535;SDS011;33278;50.826;9.030;2022-08-19T04:42:46;7.38;;;6.10;;
47535;SDS011;33278;50.826;9.030;2022-08-19T04:45:16;7.45;;;6.68;;
47535;SDS011;33278;50.826;9.030;2022-08-19T04:47:47;7.03;;;6.53;;
47535;SDS011;33278;50.826;9.030;2022-08-19T04:50:17;7.90;;;7.20;;
47535;SDS011;33278;50.826;9.030;2022-08-19T04:52:50;6.18;;;5.63;;
47535;SDS011;33278;50.826;9.030;2022-08-19T04:55:21;6.82;;;6.22;;
47535;SDS011;33278;50.826;9.030;2022-08-19T04:57:51;6.55;;;5.95;;
47535;SDS011;33278;50.826;9.030;2022-08-19T05:00:22;6.75;;;6.13;;
47535;SDS011;33278;50.826;9.030;2022-08-19T05:02:53;6.90;;;6.30;;
47535;SDS011;33278;50.826;9.030;2022-08-19T05:05:23;7.03;;;6.32;;
47535;SDS011;33278;50.826;9.030;2022-08-19T05:07:53;6.70;;;6.18;;
47535;SDS011;33278;50.826;9.030;2022-08-19T05:10:25;6.57;;;6.00;;
47535;SDS011;33278;50.826;9.030;2022-08-19T05:12:56;7.18;;;6.57;;
47535;SDS011;33278;50.826;9.030;2022-08-19T05:15:27;6.28;;;5.68;;
47535;SDS011;33278;50.826;9.030;2022-08-19T05:17:57;6.63;;;5.88;;
47535;SDS011;33278;50.826;9.030;2022-08-19T05:20:46;5.82;;;5.43;;
47535;SDS011;33278;50.826;9.030;2022-08-19T05:23:35;6.93;;;6.32;;
47535;SDS011;33278;50.826;9.030;2022-08-19T05:26:05;6.07;;;5.50;;
47535;SDS011;33278;50.826;9.030;2022-08-19T05:28:35;6.65;;;6.15;;
47535;SDS011;33278;50.826;9.030;2022-08-19T05:31:06;5.82;;;5.32;;
47535;SDS011;33278;50.826;9.030;2022-08-19T05:33:36;6.40;;;5.78;;
47535;SDS011;33278;50.826;9.030;2022-08-19T05:36:07;5.90;;;5.40;;
47535;SDS011;33278;50.826;9.030;2022-08-19T05:38:37;7.00;;;6.32;;
47535;SDS011;33278;50.826;9.030;2022-08-19T05:41:12;6.38;;;5.88;;
47535;SDS011;33278;50.826;9.030;2022-08-19T05:43:43;6.00;;;5.40;;
47535;SDS011;33278;50.826;9.030;2022-08-19T05:46:17;5.85;;;5.45;;
47535;SDS011;33278;50.826;9.030;2022-08-19T05:48:49;6.15;;;5.65;;
47535;SDS011;33278;50.826;9.030;2022-08-19T05:51:19;6.93;;;5.90;;
47535;SDS011;33278;50.826;9.030;2022-08-19T05:53:50;6.38;;;5.88;;
47535;SDS011;33278;50.826;9.030;2022-08-19T05:56:20;6.68;;;5.63;;
47535;SDS011;33278;50.826;9.030;2022-08-19T05:58:51;6.43;;;5.85;;
47535;SDS011;33278;50.826;9.030;2022-08-19T06:01:22;6.43;;;5.82;;
47535;SDS011;33278;50.826;9.030;2022-08-19T06:03:52;6.25;;;5.68;;
47535;SDS011;33278;50.826;9.030;2022-08-19T06:06:22;6.63;;;6.03;;
47535;SDS011;33278;50.826;9.030;2022-08-19T06:08:53;5.68;;;5.07;;
47535;SDS011;33278;50.826;9.030;2022-08-19T06:11:24;6.22;;;5.70;;
47535;SDS011;33278;50.826;9.030;2022-08-19T06:14:06;6.13;;;5.63;;
47535;SDS011;33278;50.826;9.030;2022-08-19T06:16:39;5.43;;;4.97;;
47535;SDS011;33278;50.826;9.030;2022-08-19T06:19:13;6.03;;;5.53;;
47535;SDS011;33278;50.826;9.030;2022-08-19T06:21:46;6.05;;;5.53;;
47535;SDS011;33278;50.826;9.030;2022-08-19T06:24:19;6.05;;;5.53;;
47535;SDS011;33278;50.826;9.030;2022-08-19T06:26:53;6.97;;;4.93;;
47535;SDS011;33278;50.826;9.030;2022-08-19T06:29:25;6.18;;;5.65;;
47535;SDS011;33278;50.826;9.030;2022-08-19T06:31:57;5.43;;;5.03;;
47535;SDS011;33278;50.826;9.030;2022-08-19T06:34:30;5.68;;;5.05;;
47535;SDS011;33278;50.826;9.030;2022-08-19T06:37:02;5.50;;;5.00;;
47535;SDS011;33278;50.826;9.030;2022-08-19T06:39:35;5.22;;;4.70;;
47535;SDS011;33278;50.826;9.030;2022-08-19T06:42:08;5.85;;;4.80;;
47535;SDS011;33278;50.826;9.030;2022-08-19T06:44:42;5.40;;;4.90;;
47535;SDS011;33278;50.826;9.030;2022-08-19T06:47:16;4.72;;;4.43;;
47535;SDS011;33278;50.826;9.030;2022-08-19T06:49:48;5.68;;;5.18;;
47535;SDS011;33278;50.826;9.030;2022-08-19T06:52:19;5.95;;;4.85;;
47535;SDS011;33278;50.826;9.030;2022-08-19T06:54:49;5.07;;;4.68;;
47535;SDS011;33278;50.826;9.030;2022-08-19T06:57:20;5.13;;;4.63;;
47535;SDS011;33278;50.826;9.030;2022-08-19T06:59:50;5.22;;;4.72;;
47535;SDS011;33278;50.826;9.030;2022-08-19T07:02:21;5.38;;;4.88;;
47535;SDS011;33278;50.826;9.030;2022-08-19T07:04:51;6.32;;;5.22;;
47535;SDS011;33278;50.826;9.030;2022-08-19T07:07:22;5.53;;;4.72;;
47535;SDS011;33278;50.826;9.030;2022-08-19T07:09:52;4.82;;;4.35;;
47535;SDS011;33278;50.826;9.030;2022-08-19T07:12:23;5.40;;;4.45;;
47535;SDS011;33278;50.826;9.030;2022-08-19T07:14:53;5.57;;;4.10;;
47535;SDS011;33278;50.826;9.030;2022-08-19T07:17:24;4.82;;;4.25;;
47535;SDS011;33278;50.826;9.030;2022-08-19T07:19:54;5.10;;;4.57;;
47535;SDS011;33278;50.826;9.030;2022-08-19T07:22:25;4.72;;;4.30;;
47535;SDS011;33278;50.826;9.030;2022-08-19T07:24:55;4.85;;;4.40;;
47535;SDS011;33278;50.826;9.030;2022-08-19T07:27:25;5.07;;;4.25;;
47535;SDS011;33278;50.826;9.030;2022-08-19T07:29:56;4.75;;;3.60;;
47535;SDS011;33278;50.826;9.030;2022-08-19T07:32:26;4.70;;;4.30;;
47535;SDS011;33278;50.826;9.030;2022-08-19T07:34:56;5.57;;;4.32;;
47535;SDS011;33278;50.826;9.030;2022-08-19T07:37:26;4.30;;;3.90;;
47535;SDS011;33278;50.826;9.030;2022-08-19T07:39:59;3.73;;;3.43;;
47535;SDS011;33278;50.826;9.030;2022-08-19T07:42:30;4.40;;;4.00;;
47535;SDS011;33278;50.826;9.030;2022-08-19T07:45:00;4.68;;;4.22;;
47535;SDS011;33278;50.826;9.030;2022-08-19T07:47:31;4.05;;;3.58;;
47535;SDS011;33278;50.826;9.030;2022-08-19T07:50:02;4.45;;;4.00;;
47535;SDS011;33278;50.826;9.030;2022-08-19T07:55:07;4.20;;;3.80;;
47535;SDS011;33278;50.826;9.030;2022-08-19T07:57:39;4.45;;;3.58;;
47535;SDS011;33278;50.826;9.030;2022-08-19T08:00:10;3.83;;;3.53;;
47535;SDS011;33278;50.826;9.030;2022-08-19T08:02:41;3.65;;;3.22;;
47535;SDS011;33278;50.826;9.030;2022-08-19T08:05:12;3.90;;;3.60;;
47535;SDS011;33278;50.826;9.030;2022-08-19T08:08:01;3.25;;;3.00;;
47535;SDS011;33278;50.826;9.030;2022-08-19T08:10:50;3.45;;;3.15;;
47535;SDS011;33278;50.826;9.030;2022-08-19T08:13:20;4.35;;;3.25;;
47535;SDS011;33278;50.826;9.030;2022-08-19T08:15:50;3.40;;;3.20;;
47535;SDS011;33278;50.826;9.030;2022-08-19T08:18:21;3.88;;;2.92;;
47535;SDS011;33278;50.826;9.030;2022-08-19T08:20:51;3.42;;;3.13;;
47535;SDS011;33278;50.826;9.030;2022-08-19T08:23:22;3.53;;;3.15;;
47535;SDS011;33278;50.826;9.030;2022-08-19T08:28:26;4.03;;;3.33;;
47535;SDS011;33278;50.826;9.030;2022-08-19T08:30:59;3.03;;;2.58;;
47535;SDS011;33278;50.826;9.030;2022-08-19T08:33:30;3.58;;;3.28;;
47535;SDS011;33278;50.826;9.030;2022-08-19T08:36:01;3.55;;;3.22;;
47535;SDS011;33278;50.826;9.030;2022-08-19T08:38:34;4.13;;;3.47;;
47535;SDS011;33278;50.826;9.030;2022-08-19T08:41:09;5.13;;;3.40;;
47535;SDS011;33278;50.826;9.030;2022-08-19T08:44:04;3.40;;;3.10;;
47535;SDS011;33278;50.826;9.030;2022-08-19T08:46:42;4.15;;;3.40;;
47535;SDS011;33278;50.826;9.030;2022-08-19T08:54:43;4.28;;;3.25;;
47535;SDS011;33278;50.826;9.030;2022-08-19T08:57:27;3.22;;;2.92;;
47535;SDS011;33278;50.826;9.030;2022-08-19T09:00:04;2.90;;;2.70;;
47535;SDS011;33278;50.826;9.030;2022-08-19T09:02:37;3.45;;;2.97;;
47535;SDS011;33278;50.826;9.030;2022-08-19T09:05:08;2.95;;;2.75;;
47535;SDS011;33278;50.826;9.030;2022-08-19T09:08:02;3.47;;;3.17;;
47535;SDS011;33278;50.826;9.030;2022-08-19T09:10:38;3.38;;;3.05;;
47535;SDS011;33278;50.826;9.030;2022-08-19T09:16:10;3.70;;;3.40;;
47535;SDS011;33278;50.826;9.030;2022-08-19T09:18:48;3.45;;;3.15;;
47535;SDS011;33278;50.826;9.030;2022-08-19T09:21:24;3.30;;;3.00;;
47535;SDS011;33278;50.826;9.030;2022-08-19T09:23:55;2.78;;;2.58;;
47535;SDS011;33278;50.826;9.030;2022-08-19T09:26:27;2.83;;;2.63;;
47535;SDS011;33278;50.826;9.030;2022-08-19T09:28:58;3.20;;;2.90;;
47535;SDS011;33278;50.826;9.030;2022-08-19T09:31:29;3.35;;;3.05;;
47535;SDS011;33278;50.826;9.030;2022-08-19T09:33:59;3.42;;;3.15;;
47535;SDS011;33278;50.826;9.030;2022-08-19T09:36:30;3.15;;;2.80;;
47535;SDS011;33278;50.826;9.030;2022-08-19T09:39:05;3.80;;;3.50;;
47535;SDS011;33278;50.826;9.030;2022-08-19T09:41:36;3.33;;;3.03;;
47535;SDS011;33278;50.826;9.030;2022-08-19T09:44:06;3.00;;;2.80;;
47535;SDS011;33278;50.826;9.030;2022-08-19T09:46:36;2.90;;;2.70;;
47535;SDS011;33278;50.826;9.030;2022-08-19T09:49:07;2.90;;;2.60;;
47535;SDS011;33278;50.826;9.030;2022-08-19T09:51:37;2.80;;;2.60;;
47535;SDS011;33278;50.826;9.030;2022-08-19T09:54:08;2.83;;;2.60;;
47535;SDS011;33278;50.826;9.030;2022-08-19T09:56:38;3.03;;;2.80;;
47535;SDS011;33278;50.826;9.030;2022-08-19T09:59:08;2.97;;;2.78;;
47535;SDS011;33278;50.826;9.030;2022-08-19T10:01:40;2.80;;;2.60;;
47535;SDS011;33278;50.826;9.030;2022-08-19T10:04:10;2.65;;;2.45;;
47535;SDS011;33278;50.826;9.030;2022-08-19T10:06:40;2.95;;;2.75;;
47535;SDS011;33278;50.826;9.030;2022-08-19T10:09:11;2.85;;;2.65;;
47535;SDS011;33278;50.826;9.030;2022-08-19T10:11:42;3.13;;;2.80;;
47535;SDS011;33278;50.826;9.030;2022-08-19T10:14:18;3.10;;;2.53;;
47535;SDS011;33278;50.826;9.030;2022-08-19T10:16:52;3.63;;;3.00;;
47535;SDS011;33278;50.826;9.030;2022-08-19T10:19:22;2.97;;;2.78;;
47535;SDS011;33278;50.826;9.030;2022-08-19T10:21:53;2.67;;;2.47;;
47535;SDS011;33278;50.826;9.030;2022-08-19T10:24:24;2.88;;;2.60;;
47535;SDS011;33278;50.826;9.030;2022-08-19T10:26:55;3.85;;;2.70;;
47535;SDS011;33278;50.826;9.030;2022-08-19T10:29:26;3.00;;;2.58;;
47535;SDS011;33278;50.826;9.030;2022-08-19T10:32:01;3.10;;;2.80;;
47535;SDS011;33278;50.826;9.030;2022-08-19T10:37:04;2.63;;;2.42;;
47535;SDS011;33278;50.826;9.030;2022-08-19T10:39:35;2.60;;;2.40;;
47535;SDS011;33278;50.826;9.030;2022-08-19T10:42:06;2.63;;;2.25;;
47535;SDS011;33278;50.826;9.030;2022-08-19T10:44:39;3.15;;;2.63;;
47535;SDS011;33278;50.826;9.030;2022-08-19T10:47:10;2.72;;;2.53;;
47535;SDS011;33278;50.826;9.030;2022-08-19T10:49:41;2.70;;;2.50;;
47535;SDS011;33278;50.826;9.030;2022-08-19T10:52:29;4.60;;;2.83;;
47535;SDS011;33278;50.826;9.030;2022-08-19T10:55:04;2.60;;;2.38;;
47535;SDS011;33278;50.826;9.030;2022-08-19T10:57:54;2.83;;;2.55;;
47535;SDS011;33278;50.826;9.030;2022-08-19T11:00:25;3.60;;;2.60;;
47535;SDS011;33278;50.826;9.030;2022-08-19T11:02:55;3.65;;;2.85;;
47535;SDS011;33278;50.826;9.030;2022-08-19T11:05:26;2.65;;;2.25;;
47535;SDS011;33278;50.826;9.030;2022-08-19T11:07:56;2.85;;;2.65;;
47535;SDS011;33278;50.826;9.030;2022-08-19T11:10:26;3.55;;;2.65;;
47535;SDS011;33278;50.826;9.030;2022-08-19T11:12:57;2.80;;;2.60;;
47535;SDS011;33278;50.826;9.030;2022-08-19T11:15:27;2.88;;;2.50;;
47535;SDS011;33278;50.826;9.030;2022-08-19T11:17:58;3.15;;;2.85;;
47535;SDS011;33278;50.826;9.030;2022-08-19T11:20:28;3.35;;;3.05;;
47535;SDS011;33278;50.826;9.030;2022-08-19T11:23:00;2.70;;;2.50;;
47535;SDS011;33278;50.826;9.030;2022-08-19T11:25:30;2.70;;;2.50;;
47535;SDS011;33278;50.826;9.030;2022-08-19T11:28:00;3.13;;;2.83;;
47535;SDS011;33278;50.826;9.030;2022-08-19T11:30:30;3.72;;;2.80;;
47535;SDS011;33278;50.826;9.030;2022-08-19T11:33:01;2.42;;;2.33;;
47535;SDS011;33278;50.826;9.030;2022-08-19T11:35:32;2.42;;;2.22;;
47535;SDS011;33278;50.826;9.030;2022-08-19T11:38:03;2.50;;;2.30;;
47535;SDS011;33278;50.826;9.030;2022-08-19T11:40:33;2.35;;;2.15;;
47535;SDS011;33278;50.826;9.030;2022-08-19T11:43:04;3.53;;;2.50;;
47535;SDS011;33278;50.826;9.030;2022-08-19T11:45:34;2.88;;;2.47;;
47535;SDS011;33278;50.826;9.030;2022-08-19T11:48:05;2.50;;;2.30;;
47535;SDS011;33278;50.826;9.030;2022-08-19T11:50:35;2.60;;;2.40;;
47535;SDS011;33278;50.826;9.030;2022-08-19T11:53:06;2.80;;;2.28;;
47535;SDS011;33278;50.826;9.030;2022-08-19T11:55:37;2.40;;;2.20;;
47535;SDS011;33278;50.826;9.030;2022-08-19T11:58:09;3.35;;;2.83;;
47535;SDS011;33278;50.826;9.030;2022-08-19T12:00:39;2.88;;;2.67;;
47535;SDS011;33278;50.826;9.030;2022-08-19T12:03:10;2.53;;;2.33;;
47535;SDS011;33278;50.826;9.030;2022-08-19T12:05:42;2.70;;;2.50;;
47535;SDS011;33278;50.826;9.030;2022-08-19T12:08:12;4.07;;;2.83;;
47535;SDS011;33278;50.826;9.030;2022-08-19T12:10:43;2.55;;;2.30;;
47535;SDS011;33278;50.826;9.030;2022-08-19T12:13:14;2.35;;;2.15;;
47535;SDS011;33278;50.826;9.030;2022-08-19T12:15:48;2.58;;;2.38;;
47535;SDS011;33278;50.826;9.030;2022-08-19T12:18:19;2.80;;;2.47;;
47535;SDS011;33278;50.826;9.030;2022-08-19T12:20:50;3.13;;;2.60;;
47535;SDS011;33278;50.826;9.030;2022-08-19T12:23:22;2.58;;;2.38;;
47535;SDS011;33278;50.826;9.030;2022-08-19T12:25:53;2.80;;;2.60;;
47535;SDS011;33278;50.826;9.030;2022-08-19T12:28:24;2.63;;;2.22;;
47535;SDS011;33278;50.826;9.030;2022-08-19T12:30:55;2.60;;;2.40;;
47535;SDS011;33278;50.826;9.030;2022-08-19T12:33:26;2.90;;;2.70;;
47535;SDS011;33278;50.826;9.030;2022-08-19T12:36:05;2.92;;;2.45;;
47535;SDS011;33278;50.826;9.030;2022-08-19T12:38:38;2.63;;;2.40;;
47535;SDS011;33278;50.826;9.030;2022-08-19T12:41:10;2.67;;;2.47;;
47535;SDS011;33278;50.826;9.030;2022-08-19T12:43:43;2.58;;;2.38;;
47535;SDS011;33278;50.826;9.030;2022-08-19T12:46:14;2.63;;;2.42;;
47535;SDS011;33278;50.826;9.030;2022-08-19T12:48:44;2.67;;;2.47;;
47535;SDS011;33278;50.826;9.030;2022-08-19T12:51:16;3.10;;;2.33;;
47535;SDS011;33278;50.826;9.030;2022-08-19T12:53:49;2.55;;;2.35;;
47535;SDS011;33278;50.826;9.030;2022-08-19T12:56:19;2.65;;;2.42;;
47535;SDS011;33278;50.826;9.030;2022-08-19T12:58:50;2.67;;;2.45;;
47535;SDS011;33278;50.826;9.030;2022-08-19T13:01:20;2.80;;;2.60;;
47535;SDS011;33278;50.826;9.030;2022-08-19T13:03:51;3.05;;;2.80;;
47535;SDS011;33278;50.826;9.030;2022-08-19T13:06:22;2.72;;;2.53;;
47535;SDS011;33278;50.826;9.030;2022-08-19T13:08:53;2.97;;;2.78;;
47535;SDS011;33278;50.826;9.030;2022-08-19T13:11:24;2.58;;;2.35;;
47535;SDS011;33278;50.826;9.030;2022-08-19T13:13:55;3.20;;;2.92;;
47535;SDS011;33278;50.826;9.030;2022-08-19T13:16:25;2.75;;;2.55;;
47535;SDS011;33278;50.826;9.030;2022-08-19T13:18:57;2.90;;;2.50;;
47535;SDS011;33278;50.826;9.030;2022-08-19T13:21:28;3.15;;;2.95;;
47535;SDS011;33278;50.826;9.030;2022-08-19T13:23:59;5.55;;;2.42;;
47535;SDS011;33278;50.826;9.030;2022-08-19T13:26:30;3.10;;;2.80;;
47535;SDS011;33278;50.826;9.030;2022-08-19T13:29:00;2.65;;;2.45;;
47535;SDS011;33278;50.826;9.030;2022-08-19T13:31:49;2.72;;;2.53;;
47535;SDS011;33278;50.826;9.030;2022-08-19T13:34:38;3.15;;;2.95;;
47535;SDS011;33278;50.826;9.030;2022-08-19T13:37:09;2.70;;;2.50;;
47535;SDS011;33278;50.826;9.030;2022-08-19T13:39:39;3.25;;;2.95;;
47535;SDS011;33278;50.826;9.030;2022-08-19T13:42:10;2.90;;;2.70;;
47535;SDS011;33278;50.826;9.030;2022-08-19T13:44:40;2.80;;;2.60;;
47535;SDS011;33278;50.826;9.030;2022-08-19T13:47:10;3.42;;;3.05;;
47535;SDS011;33278;50.826;9.030;2022-08-19T13:49:43;3.50;;;3.20;;
47535;SDS011;33278;50.826;9.030;2022-08-19T13:52:14;3.35;;;3.10;;
47535;SDS011;33278;50.826;9.030;2022-08-19T13:54:44;3.28;;;2.97;;
47535;SDS011;33278;50.826;9.030;2022-08-19T13:57:14;3.22;;;2.92;;
47535;SDS011;33278;50.826;9.030;2022-08-19T13:59:44;2.97;;;2.78;;
47535;SDS011;33278;50.826;9.030;2022-08-19T14:02:24;4.95;;;3.03;;
47535;SDS011;33278;50.826;9.030;2022-08-19T14:04:56;2.90;;;2.70;;
47535;SDS011;33278;50.826;9.030;2022-08-19T14:07:26;3.40;;;3.10;;
47535;SDS011;33278;50.826;9.030;2022-08-19T14:09:56;3.67;;;3.40;;
47535;SDS011;33278;50.826;9.030;2022-08-19T14:12:27;2.80;;;2.60;;
47535;SDS011;33278;50.826;9.030;2022-08-19T14:14:57;3.00;;;2.80;;
47535;SDS011;33278;50.826;9.030;2022-08-19T14:17:28;3.25;;;2.95;;
47535;SDS011;33278;50.826;9.030;2022-08-19T14:19:59;3.20;;;2.92;;
47535;SDS011;33278;50.826;9.030;2022-08-19T14:22:34;3.38;;;3.08;;
47535;SDS011;33278;50.826;9.030;2022-08-19T14:25:07;3.65;;;3.22;;
47535;SDS011;33278;50.826;9.030;2022-08-19T14:27:39;2.85;;;2.60;;
47535;SDS011;33278;50.826;9.030;2022-08-19T14:30:12;3.50;;;3.20;;
47535;SDS011;33278;50.826;9.030;2022-08-19T14:32:44;3.88;;;3.58;;
47535;SDS011;33278;50.826;9.030;2022-08-19T14:35:15;5.07;;;3.90;;
47535;SDS011;33278;50.826;9.030;2022-08-19T14:37:46;3.15;;;2.92;;
47535;SDS011;33278;50.826;9.030;2022-08-19T14:40:17;3.53;;;3.22;;
47535;SDS011;33278;50.826;9.030;2022-08-19T14:42:52;3.25;;;2.95;;
47535;SDS011;33278;50.826;9.030;2022-08-19T14:45:29;3.67;;;3.38;;
47535;SDS011;33278;50.826;9.030;2022-08-19T14:48:06;3.17;;;2.90;;
47535;SDS011;33278;50.826;9.030;2022-08-19T14:50:38;3.90;;;3.50;;
47535;SDS011;33278;50.826;9.030;2022-08-19T14:53:08;3.45;;;3.10;;
47535;SDS011;33278;50.826;9.030;2022-08-19T14:55:42;4.07;;;3.33;;
47535;SDS011;33278;50.826;9.030;2022-08-19T14:58:15;3.42;;;3.13;;
47535;SDS011;33278;50.826;9.030;2022-08-19T15:00:46;3.20;;;3.00;;
47535;SDS011;33278;50.826;9.030;2022-08-19T15:03:16;3.90;;;3.50;;
47535;SDS011;33278;50.826;9.030;2022-08-19T15:05:46;3.47;;;3.20;;
47535;SDS011;33278;50.826;9.030;2022-08-19T15:08:16;3.95;;;3.10;;
47535;SDS011;33278;50.826;9.030;2022-08-19T15:10:47;4.13;;;3.83;;
47535;SDS011;33278;50.826;9.030;2022-08-19T15:13:17;3.53;;;3.22;;
47535;SDS011;33278;50.826;9.030;2022-08-19T15:15:48;3.75;;;3.45;;
47535;SDS011;33278;50.826;9.030;2022-08-19T15:18:18;3.45;;;3.25;;
47535;SDS011;33278;50.826;9.030;2022-08-19T15:20:50;3.50;;;3.20;;
47535;SDS011;33278;50.826;9.030;2022-08-19T15:23:20;3.50;;;3.20;;
47535;SDS011;33278;50.826;9.030;2022-08-19T15:25:51;3.35;;;3.05;;
47535;SDS011;33278;50.826;9.030;2022-08-19T15:28:25;3.83;;;3.55;;
47535;SDS011;33278;50.826;9.030;2022-08-19T15:30:55;3.63;;;3.33;;
47535;SDS011;33278;50.826;9.030;2022-08-19T15:33:26;3.35;;;3.15;;
47535;SDS011;33278;50.826;9.030;2022-08-19T15:35:56;3.30;;;3.10;;